sensor_id;sensor_type;location;lat;lon;timestamp;P1;durP1;ratioP1;P2;durP2;ratioP2
63807;SDS011;49961;43.970;22.868;2022-12-20T00:00:41;33.70;;;24.17;;
63807;SDS011;49961;43.970;22.868;2022-12-20T00:01:41;36.63;;;24.20;;
63807;SDS011;49961;43.970;22.868;2022-12-20T00:02:42;33.30;;;23.30;;
63807;SDS011;49961;43.970;22.868;2022-12-20T00:03:43;35.37;;;23.90;;
63807;SDS011;49961;43.970;22.868;2022-12-20T00:04:44;35.05;;;24.17;;
63807;SDS011;49961;43.970;22.868;2022-12-20T00:05:44;34.93;;;24.23;;
63807;SDS011;49961;43.970;22.868;2022-12-20T00:06:45;35.50;;;24.23;;
63807;SDS011;49961;43.970;22.868;2022-12-20T00:07:46;36.27;;;24.33;;
63807;SDS011;49961;43.970;22.868;2022-12-20T00:08:46;35.00;;;23.67;;
63807;SDS011;49961;43.970;22.868;2022-12-20T00:09:53;33.63;;;23.33;;
63807;SDS011;49961;43.970;22.868;2022-12-20T00:10:54;34.97;;;23.80;;
63807;SDS011;49961;43.970;22.868;2022-12-20T00:11:54;35.70;;;24.33;;
63807;SDS011;49961;43.970;22.868;2022-12-20T00:12:54;38.43;;;25.17;;
63807;SDS011;49961;43.970;22.868;2022-12-20T00:13:55;34.70;;;24.27;;
63807;SDS011;49961;43.970;22.868;2022-12-20T00:14:56;33.70;;;23.33;;
63807;SDS011;49961;43.970;22.868;2022-12-20T00:16:04;36.77;;;24.70;;
63807;SDS011;49961;43.970;22.868;2022-12-20T00:17:06;35.35;;;23.10;;
63807;SDS011;49961;43.970;22.868;2022-12-20T00:18:07;36.80;;;24.43;;
63807;SDS011;49961;43.970;22.868;2022-12-20T00:19:09;35.35;;;24.05;;
63807;SDS011;49961;43.970;22.868;2022-12-20T00:20:10;34.40;;;24.42;;
63807;SDS011;49961;43.970;22.868;2022-12-20T00:21:12;35.60;;;23.93;;
63807;SDS011;49961;43.970;22.868;2022-12-20T00:22:13;35.55;;;24.38;;
63807;SDS011;49961;43.970;22.868;2022-12-20T00:23:13;33.53;;;23.33;;
63807;SDS011;49961;43.970;22.868;2022-12-20T00:24:14;37.70;;;24.87;;
63807;SDS011;49961;43.970;22.868;2022-12-20T00:25:14;35.33;;;24.57;;
63807;SDS011;49961;43.970;22.868;2022-12-20T00:26:16;34.70;;;23.40;;
63807;SDS011;49961;43.970;22.868;2022-12-20T00:27:18;36.75;;;22.65;;
63807;SDS011;49961;43.970;22.868;2022-12-20T00:28:18;36.83;;;24.70;;
63807;SDS011;49961;43.970;22.868;2022-12-20T00:29:18;35.53;;;23.93;;
63807;SDS011;49961;43.970;22.868;2022-12-20T00:30:19;34.37;;;23.93;;
63807;SDS011;49961;43.970;22.868;2022-12-20T00:31:20;36.13;;;24.67;;
63807;SDS011;49961;43.970;22.868;2022-12-20T00:32:21;34.75;;;24.33;;
63807;SDS011;49961;43.970;22.868;2022-12-20T00:33:22;35.13;;;24.60;;
63807;SDS011;49961;43.970;22.868;2022-12-20T00:34:22;35.90;;;24.13;;
63807;SDS011;49961;43.970;22.868;2022-12-20T00:35:23;32.43;;;23.33;;
63807;SDS011;49961;43.970;22.868;2022-12-20T00:36:24;35.27;;;23.60;;
63807;SDS011;49961;43.970;22.868;2022-12-20T00:37:26;37.78;;;24.15;;
63807;SDS011;49961;43.970;22.868;2022-12-20T00:38:26;33.93;;;23.73;;
63807;SDS011;49961;43.970;22.868;2022-12-20T00:39:27;34.30;;;23.50;;
63807;SDS011;49961;43.970;22.868;2022-12-20T00:40:27;32.93;;;23.03;;
63807;SDS011;49961;43.970;22.868;2022-12-20T00:41:29;33.77;;;23.07;;
63807;SDS011;49961;43.970;22.868;2022-12-20T00:42:31;35.22;;;24.00;;
63807;SDS011;49961;43.970;22.868;2022-12-20T00:43:32;33.90;;;23.43;;
63807;SDS011;49961;43.970;22.868;2022-12-20T00:44:32;33.88;;;24.05;;
63807;SDS011;49961;43.970;22.868;2022-12-20T00:45:33;35.07;;;23.23;;
63807;SDS011;49961;43.970;22.868;2022-12-20T00:46:33;35.87;;;24.20;;
63807;SDS011;49961;43.970;22.868;2022-12-20T00:47:34;34.97;;;23.27;;
63807;SDS011;49961;43.970;22.868;2022-12-20T00:48:35;34.77;;;23.77;;
63807;SDS011;49961;43.970;22.868;2022-12-20T00:49:36;35.53;;;24.25;;
63807;SDS011;49961;43.970;22.868;2022-12-20T00:50:36;35.50;;;24.23;;
63807;SDS011;49961;43.970;22.868;2022-12-20T00:51:37;33.47;;;22.80;;
63807;SDS011;49961;43.970;22.868;2022-12-20T00:52:37;34.40;;;23.30;;
63807;SDS011;49961;43.970;22.868;2022-12-20T00:53:38;39.77;;;24.57;;
63807;SDS011;49961;43.970;22.868;2022-12-20T00:54:38;34.67;;;23.10;;
63807;SDS011;49961;43.970;22.868;2022-12-20T00:55:42;35.67;;;23.60;;
63807;SDS011;49961;43.970;22.868;2022-12-20T00:56:44;33.90;;;22.15;;
63807;SDS011;49961;43.970;22.868;2022-12-20T00:57:44;35.23;;;23.93;;
63807;SDS011;49961;43.970;22.868;2022-12-20T00:58:45;36.13;;;24.50;;
63807;SDS011;49961;43.970;22.868;2022-12-20T00:59:45;36.43;;;24.33;;
63807;SDS011;49961;43.970;22.868;2022-12-20T01:00:46;33.40;;;22.67;;
63807;SDS011;49961;43.970;22.868;2022-12-20T01:01:47;37.67;;;23.37;;
63807;SDS011;49961;43.970;22.868;2022-12-20T01:02:47;34.50;;;22.93;;
63807;SDS011;49961;43.970;22.868;2022-12-20T01:03:48;36.33;;;23.53;;
63807;SDS011;49961;43.970;22.868;2022-12-20T01:04:49;33.10;;;23.38;;
63807;SDS011;49961;43.970;22.868;2022-12-20T01:05:50;33.07;;;22.70;;
63807;SDS011;49961;43.970;22.868;2022-12-20T01:06:52;34.72;;;23.80;;
63807;SDS011;49961;43.970;22.868;2022-12-20T01:07:52;33.67;;;22.90;;
63807;SDS011;49961;43.970;22.868;2022-12-20T01:08:53;34.07;;;24.13;;
63807;SDS011;49961;43.970;22.868;2022-12-20T01:09:54;36.95;;;23.70;;
63807;SDS011;49961;43.970;22.868;2022-12-20T01:11:01;33.80;;;23.30;;
63807;SDS011;49961;43.970;22.868;2022-12-20T01:12:05;34.40;;;22.70;;
63807;SDS011;49961;43.970;22.868;2022-12-20T01:13:06;35.30;;;24.67;;
63807;SDS011;49961;43.970;22.868;2022-12-20T01:14:07;34.97;;;23.10;;
63807;SDS011;49961;43.970;22.868;2022-12-20T01:15:11;37.95;;;24.25;;
63807;SDS011;49961;43.970;22.868;2022-12-20T01:16:13;36.17;;;24.80;;
63807;SDS011;49961;43.970;22.868;2022-12-20T01:17:16;34.90;;;23.50;;
63807;SDS011;49961;43.970;22.868;2022-12-20T01:18:17;36.33;;;25.00;;
63807;SDS011;49961;43.970;22.868;2022-12-20T01:19:18;34.87;;;23.67;;
63807;SDS011;49961;43.970;22.868;2022-12-20T01:20:18;36.20;;;24.27;;
63807;SDS011;49961;43.970;22.868;2022-12-20T01:21:19;35.70;;;23.83;;
63807;SDS011;49961;43.970;22.868;2022-12-20T01:22:22;35.60;;;24.58;;
63807;SDS011;49961;43.970;22.868;2022-12-20T01:23:22;35.00;;;24.17;;
63807;SDS011;49961;43.970;22.868;2022-12-20T01:24:23;33.10;;;23.30;;
63807;SDS011;49961;43.970;22.868;2022-12-20T01:25:23;39.77;;;24.57;;
63807;SDS011;49961;43.970;22.868;2022-12-20T01:26:24;36.80;;;24.70;;
63807;SDS011;49961;43.970;22.868;2022-12-20T01:27:27;34.28;;;24.20;;
63807;SDS011;49961;43.970;22.868;2022-12-20T01:28:28;36.70;;;25.03;;
63807;SDS011;49961;43.970;22.868;2022-12-20T01:29:28;34.80;;;24.07;;
63807;SDS011;49961;43.970;22.868;2022-12-20T01:30:29;34.93;;;24.23;;
63807;SDS011;49961;43.970;22.868;2022-12-20T01:31:30;36.87;;;24.13;;
63807;SDS011;49961;43.970;22.868;2022-12-20T01:32:30;35.87;;;24.17;;
63807;SDS011;49961;43.970;22.868;2022-12-20T01:33:30;34.97;;;23.33;;
63807;SDS011;49961;43.970;22.868;2022-12-20T01:34:31;36.27;;;25.00;;
63807;SDS011;49961;43.970;22.868;2022-12-20T01:35:31;36.10;;;25.03;;
63807;SDS011;49961;43.970;22.868;2022-12-20T01:36:33;36.13;;;24.27;;
63807;SDS011;49961;43.970;22.868;2022-12-20T01:37:37;34.78;;;24.13;;
63807;SDS011;49961;43.970;22.868;2022-12-20T01:38:38;35.83;;;24.23;;
63807;SDS011;49961;43.970;22.868;2022-12-20T01:39:41;38.00;;;25.05;;
63807;SDS011;49961;43.970;22.868;2022-12-20T01:40:42;34.20;;;24.17;;
63807;SDS011;49961;43.970;22.868;2022-12-20T01:41:42;37.97;;;24.57;;
63807;SDS011;49961;43.970;22.868;2022-12-20T01:42:44;37.28;;;25.05;;
63807;SDS011;49961;43.970;22.868;2022-12-20T01:44:57;33.17;;;23.17;;
63807;SDS011;49961;43.970;22.868;2022-12-20T01:45:58;37.33;;;24.23;;
63807;SDS011;49961;43.970;22.868;2022-12-20T01:46:58;36.70;;;24.50;;
63807;SDS011;49961;43.970;22.868;2022-12-20T01:47:59;35.20;;;23.77;;
63807;SDS011;49961;43.970;22.868;2022-12-20T01:49:17;36.45;;;24.83;;
63807;SDS011;49961;43.970;22.868;2022-12-20T01:50:35;35.35;;;22.77;;
63807;SDS011;49961;43.970;22.868;2022-12-20T01:51:38;35.42;;;23.63;;
63807;SDS011;49961;43.970;22.868;2022-12-20T01:52:42;35.53;;;24.55;;
63807;SDS011;49961;43.970;22.868;2022-12-20T01:53:46;36.33;;;23.85;;
63807;SDS011;49961;43.970;22.868;2022-12-20T01:54:52;34.80;;;24.33;;
63807;SDS011;49961;43.970;22.868;2022-12-20T01:56:14;37.65;;;23.90;;
63807;SDS011;49961;43.970;22.868;2022-12-20T01:57:16;34.70;;;23.33;;
63807;SDS011;49961;43.970;22.868;2022-12-20T01:58:19;35.97;;;24.02;;
63807;SDS011;49961;43.970;22.868;2022-12-20T01:59:21;37.30;;;24.90;;
63807;SDS011;49961;43.970;22.868;2022-12-20T02:00:21;37.27;;;24.10;;
63807;SDS011;49961;43.970;22.868;2022-12-20T02:01:22;35.03;;;23.60;;
63807;SDS011;49961;43.970;22.868;2022-12-20T02:02:23;38.22;;;24.15;;
63807;SDS011;49961;43.970;22.868;2022-12-20T02:03:24;35.80;;;23.03;;
63807;SDS011;49961;43.970;22.868;2022-12-20T02:04:25;34.00;;;23.13;;
63807;SDS011;49961;43.970;22.868;2022-12-20T02:05:25;33.43;;;23.03;;
63807;SDS011;49961;43.970;22.868;2022-12-20T02:06:26;35.87;;;23.97;;
63807;SDS011;49961;43.970;22.868;2022-12-20T02:07:28;33.57;;;23.70;;
63807;SDS011;49961;43.970;22.868;2022-12-20T02:08:32;33.50;;;22.77;;
63807;SDS011;49961;43.970;22.868;2022-12-20T02:09:32;34.97;;;23.10;;
63807;SDS011;49961;43.970;22.868;2022-12-20T02:10:43;33.88;;;22.45;;
63807;SDS011;49961;43.970;22.868;2022-12-20T02:14:37;33.88;;;22.70;;
63807;SDS011;49961;43.970;22.868;2022-12-20T02:18:34;35.80;;;23.90;;
63807;SDS011;49961;43.970;22.868;2022-12-20T02:23:58;34.65;;;21.60;;
63807;SDS011;49961;43.970;22.868;2022-12-20T02:27:57;35.25;;;23.40;;
63807;SDS011;49961;43.970;22.868;2022-12-20T02:29:17;33.25;;;22.27;;
63807;SDS011;49961;43.970;22.868;2022-12-20T02:30:25;34.03;;;21.65;;
63807;SDS011;49961;43.970;22.868;2022-12-20T02:31:38;34.55;;;22.52;;
63807;SDS011;49961;43.970;22.868;2022-12-20T02:33:46;33.70;;;22.55;;
63807;SDS011;49961;43.970;22.868;2022-12-20T02:34:48;33.75;;;22.38;;
63807;SDS011;49961;43.970;22.868;2022-12-20T02:35:49;36.13;;;23.77;;
63807;SDS011;49961;43.970;22.868;2022-12-20T02:36:50;31.97;;;21.97;;
63807;SDS011;49961;43.970;22.868;2022-12-20T02:37:55;36.55;;;23.90;;
63807;SDS011;49961;43.970;22.868;2022-12-20T02:38:57;32.97;;;23.02;;
63807;SDS011;49961;43.970;22.868;2022-12-20T02:39:58;36.03;;;23.80;;
63807;SDS011;49961;43.970;22.868;2022-12-20T02:41:01;33.72;;;23.30;;
63807;SDS011;49961;43.970;22.868;2022-12-20T02:42:11;37.10;;;24.10;;
63807;SDS011;49961;43.970;22.868;2022-12-20T02:43:15;35.00;;;22.95;;
63807;SDS011;49961;43.970;22.868;2022-12-20T02:44:35;34.88;;;23.23;;
63807;SDS011;49961;43.970;22.868;2022-12-20T02:46:16;33.60;;;22.50;;
63807;SDS011;49961;43.970;22.868;2022-12-20T02:47:24;33.10;;;22.42;;
63807;SDS011;49961;43.970;22.868;2022-12-20T02:48:30;34.53;;;22.52;;
63807;SDS011;49961;43.970;22.868;2022-12-20T02:49:33;36.22;;;23.90;;
63807;SDS011;49961;43.970;22.868;2022-12-20T02:50:38;36.67;;;23.20;;
63807;SDS011;49961;43.970;22.868;2022-12-20T02:51:44;36.00;;;23.17;;
63807;SDS011;49961;43.970;22.868;2022-12-20T02:52:48;37.20;;;23.30;;
63807;SDS011;49961;43.970;22.868;2022-12-20T02:53:50;34.13;;;22.95;;
63807;SDS011;49961;43.970;22.868;2022-12-20T02:54:51;35.53;;;23.87;;
63807;SDS011;49961;43.970;22.868;2022-12-20T02:55:56;36.40;;;23.70;;
63807;SDS011;49961;43.970;22.868;2022-12-20T02:57:17;32.47;;;22.35;;
63807;SDS011;49961;43.970;22.868;2022-12-20T02:58:57;36.75;;;24.17;;
63807;SDS011;49961;43.970;22.868;2022-12-20T03:00:11;34.20;;;22.45;;
63807;SDS011;49961;43.970;22.868;2022-12-20T03:01:48;33.03;;;22.45;;
63807;SDS011;49961;43.970;22.868;2022-12-20T03:02:44;33.25;;;21.40;;
63807;SDS011;49961;43.970;22.868;2022-12-20T03:04:04;34.42;;;22.35;;
63807;SDS011;49961;43.970;22.868;2022-12-20T03:05:07;35.78;;;23.42;;
63807;SDS011;49961;43.970;22.868;2022-12-20T03:06:07;32.90;;;22.67;;
63807;SDS011;49961;43.970;22.868;2022-12-20T03:07:09;35.57;;;22.83;;
63807;SDS011;49961;43.970;22.868;2022-12-20T03:08:12;33.25;;;22.77;;
63807;SDS011;49961;43.970;22.868;2022-12-20T03:09:12;35.77;;;23.73;;
63807;SDS011;49961;43.970;22.868;2022-12-20T03:10:13;32.90;;;22.80;;
63807;SDS011;49961;43.970;22.868;2022-12-20T03:11:14;35.17;;;22.60;;
63807;SDS011;49961;43.970;22.868;2022-12-20T03:12:14;33.43;;;22.57;;
63807;SDS011;49961;43.970;22.868;2022-12-20T03:13:15;35.03;;;23.02;;
63807;SDS011;49961;43.970;22.868;2022-12-20T03:14:17;33.40;;;21.77;;
63807;SDS011;49961;43.970;22.868;2022-12-20T03:15:17;34.63;;;22.73;;
63807;SDS011;49961;43.970;22.868;2022-12-20T03:16:18;33.00;;;22.47;;
63807;SDS011;49961;43.970;22.868;2022-12-20T03:17:18;34.77;;;22.50;;
63807;SDS011;49961;43.970;22.868;2022-12-20T03:18:19;34.73;;;22.87;;
63807;SDS011;49961;43.970;22.868;2022-12-20T03:19:19;33.97;;;22.93;;
63807;SDS011;49961;43.970;22.868;2022-12-20T03:20:20;37.40;;;23.17;;
63807;SDS011;49961;43.970;22.868;2022-12-20T03:21:20;34.10;;;23.27;;
63807;SDS011;49961;43.970;22.868;2022-12-20T03:22:21;31.97;;;21.73;;
63807;SDS011;49961;43.970;22.868;2022-12-20T03:23:22;34.47;;;23.27;;
63807;SDS011;49961;43.970;22.868;2022-12-20T03:24:24;37.37;;;23.43;;
63807;SDS011;49961;43.970;22.868;2022-12-20T03:25:25;32.90;;;21.52;;
63807;SDS011;49961;43.970;22.868;2022-12-20T03:26:26;31.97;;;22.30;;
63807;SDS011;49961;43.970;22.868;2022-12-20T03:27:26;31.73;;;21.73;;
63807;SDS011;49961;43.970;22.868;2022-12-20T03:28:27;35.42;;;22.63;;
63807;SDS011;49961;43.970;22.868;2022-12-20T03:29:28;33.13;;;22.37;;
63807;SDS011;49961;43.970;22.868;2022-12-20T03:30:28;32.27;;;21.50;;
63807;SDS011;49961;43.970;22.868;2022-12-20T03:31:29;33.33;;;22.03;;
63807;SDS011;49961;43.970;22.868;2022-12-20T03:32:29;33.80;;;21.67;;
63807;SDS011;49961;43.970;22.868;2022-12-20T03:33:30;32.37;;;22.07;;
63807;SDS011;49961;43.970;22.868;2022-12-20T03:34:30;33.47;;;21.67;;
63807;SDS011;49961;43.970;22.868;2022-12-20T03:35:30;32.23;;;21.57;;
63807;SDS011;49961;43.970;22.868;2022-12-20T03:36:31;33.70;;;22.83;;
63807;SDS011;49961;43.970;22.868;2022-12-20T03:37:32;34.53;;;21.93;;
63807;SDS011;49961;43.970;22.868;2022-12-20T03:38:32;31.73;;;22.10;;
63807;SDS011;49961;43.970;22.868;2022-12-20T03:39:33;34.50;;;22.37;;
63807;SDS011;49961;43.970;22.868;2022-12-20T03:40:33;34.07;;;22.57;;
63807;SDS011;49961;43.970;22.868;2022-12-20T03:41:33;33.73;;;22.07;;
63807;SDS011;49961;43.970;22.868;2022-12-20T03:42:34;33.97;;;22.37;;
63807;SDS011;49961;43.970;22.868;2022-12-20T03:43:35;33.67;;;21.92;;
63807;SDS011;49961;43.970;22.868;2022-12-20T03:44:35;30.53;;;21.27;;
63807;SDS011;49961;43.970;22.868;2022-12-20T03:45:36;30.93;;;21.50;;
63807;SDS011;49961;43.970;22.868;2022-12-20T03:46:36;29.90;;;21.37;;
63807;SDS011;49961;43.970;22.868;2022-12-20T03:47:37;31.77;;;22.20;;
63807;SDS011;49961;43.970;22.868;2022-12-20T03:48:37;31.60;;;21.27;;
63807;SDS011;49961;43.970;22.868;2022-12-20T03:49:37;35.77;;;23.03;;
63807;SDS011;49961;43.970;22.868;2022-12-20T03:50:38;32.47;;;21.50;;
63807;SDS011;49961;43.970;22.868;2022-12-20T03:51:38;32.67;;;22.33;;
63807;SDS011;49961;43.970;22.868;2022-12-20T03:52:39;32.33;;;21.87;;
63807;SDS011;49961;43.970;22.868;2022-12-20T03:53:39;33.13;;;21.90;;
63807;SDS011;49961;43.970;22.868;2022-12-20T03:54:40;32.07;;;21.63;;
63807;SDS011;49961;43.970;22.868;2022-12-20T03:55:40;32.87;;;21.63;;
63807;SDS011;49961;43.970;22.868;2022-12-20T03:56:41;35.70;;;21.90;;
63807;SDS011;49961;43.970;22.868;2022-12-20T03:57:41;34.73;;;21.87;;
63807;SDS011;49961;43.970;22.868;2022-12-20T03:58:42;33.23;;;22.83;;
63807;SDS011;49961;43.970;22.868;2022-12-20T03:59:42;34.50;;;22.67;;
63807;SDS011;49961;43.970;22.868;2022-12-20T04:00:43;35.90;;;22.38;;
63807;SDS011;49961;43.970;22.868;2022-12-20T04:01:44;34.77;;;23.20;;
63807;SDS011;49961;43.970;22.868;2022-12-20T04:02:44;35.27;;;22.67;;
63807;SDS011;49961;43.970;22.868;2022-12-20T04:03:45;33.40;;;21.83;;
63807;SDS011;49961;43.970;22.868;2022-12-20T04:04:45;35.37;;;22.30;;
63807;SDS011;49961;43.970;22.868;2022-12-20T04:05:46;34.30;;;23.33;;
63807;SDS011;49961;43.970;22.868;2022-12-20T04:06:46;36.53;;;23.90;;
63807;SDS011;49961;43.970;22.868;2022-12-20T04:07:47;32.27;;;21.70;;
63807;SDS011;49961;43.970;22.868;2022-12-20T04:08:47;33.70;;;21.80;;
63807;SDS011;49961;43.970;22.868;2022-12-20T04:09:48;34.03;;;22.40;;
63807;SDS011;49961;43.970;22.868;2022-12-20T04:10:49;35.37;;;22.50;;
63807;SDS011;49961;43.970;22.868;2022-12-20T04:12:08;35.38;;;21.63;;
63807;SDS011;49961;43.970;22.868;2022-12-20T04:13:08;34.10;;;22.30;;
63807;SDS011;49961;43.970;22.868;2022-12-20T04:14:09;34.77;;;21.63;;
63807;SDS011;49961;43.970;22.868;2022-12-20T04:15:09;35.57;;;22.43;;
63807;SDS011;49961;43.970;22.868;2022-12-20T04:16:10;32.00;;;21.93;;
63807;SDS011;49961;43.970;22.868;2022-12-20T04:17:12;33.55;;;22.30;;
63807;SDS011;49961;43.970;22.868;2022-12-20T04:18:12;35.60;;;22.87;;
63807;SDS011;49961;43.970;22.868;2022-12-20T04:19:12;35.23;;;22.37;;
63807;SDS011;49961;43.970;22.868;2022-12-20T04:20:13;34.23;;;22.97;;
63807;SDS011;49961;43.970;22.868;2022-12-20T04:21:28;32.88;;;21.45;;
63807;SDS011;49961;43.970;22.868;2022-12-20T04:22:30;31.98;;;21.75;;
63807;SDS011;49961;43.970;22.868;2022-12-20T04:23:31;33.50;;;22.10;;
63807;SDS011;49961;43.970;22.868;2022-12-20T04:24:35;33.88;;;22.27;;
63807;SDS011;49961;43.970;22.868;2022-12-20T04:25:35;35.20;;;22.27;;
63807;SDS011;49961;43.970;22.868;2022-12-20T04:26:36;35.40;;;23.17;;
63807;SDS011;49961;43.970;22.868;2022-12-20T04:27:36;36.17;;;22.33;;
63807;SDS011;49961;43.970;22.868;2022-12-20T04:28:37;34.83;;;22.43;;
63807;SDS011;49961;43.970;22.868;2022-12-20T04:29:37;34.93;;;22.60;;
63807;SDS011;49961;43.970;22.868;2022-12-20T04:30:38;33.87;;;22.33;;
63807;SDS011;49961;43.970;22.868;2022-12-20T04:31:38;33.50;;;21.67;;
63807;SDS011;49961;43.970;22.868;2022-12-20T04:32:39;31.92;;;21.58;;
63807;SDS011;49961;43.970;22.868;2022-12-20T04:33:40;33.60;;;21.87;;
63807;SDS011;49961;43.970;22.868;2022-12-20T04:34:40;32.33;;;21.37;;
63807;SDS011;49961;43.970;22.868;2022-12-20T04:35:41;33.40;;;21.53;;
63807;SDS011;49961;43.970;22.868;2022-12-20T04:36:41;32.60;;;21.43;;
63807;SDS011;49961;43.970;22.868;2022-12-20T04:37:41;31.43;;;21.37;;
63807;SDS011;49961;43.970;22.868;2022-12-20T04:38:42;33.80;;;21.27;;
63807;SDS011;49961;43.970;22.868;2022-12-20T04:39:42;32.57;;;21.17;;
63807;SDS011;49961;43.970;22.868;2022-12-20T04:40:43;31.90;;;21.83;;
63807;SDS011;49961;43.970;22.868;2022-12-20T04:41:43;32.83;;;21.13;;
63807;SDS011;49961;43.970;22.868;2022-12-20T04:42:44;34.17;;;21.97;;
63807;SDS011;49961;43.970;22.868;2022-12-20T04:43:44;33.80;;;21.40;;
63807;SDS011;49961;43.970;22.868;2022-12-20T04:44:45;31.77;;;21.70;;
63807;SDS011;49961;43.970;22.868;2022-12-20T04:45:49;30.57;;;20.63;;
63807;SDS011;49961;43.970;22.868;2022-12-20T04:46:51;33.20;;;20.95;;
63807;SDS011;49961;43.970;22.868;2022-12-20T04:47:52;32.87;;;21.87;;
63807;SDS011;49961;43.970;22.868;2022-12-20T04:48:52;33.10;;;22.37;;
63807;SDS011;49961;43.970;22.868;2022-12-20T04:49:53;33.13;;;21.57;;
63807;SDS011;49961;43.970;22.868;2022-12-20T04:50:54;34.23;;;21.93;;
63807;SDS011;49961;43.970;22.868;2022-12-20T04:51:55;33.60;;;20.73;;
63807;SDS011;49961;43.970;22.868;2022-12-20T04:53:15;31.83;;;21.30;;
63807;SDS011;49961;43.970;22.868;2022-12-20T04:54:35;33.60;;;21.95;;
63807;SDS011;49961;43.970;22.868;2022-12-20T04:55:36;32.63;;;21.50;;
63807;SDS011;49961;43.970;22.868;2022-12-20T04:56:37;33.63;;;21.58;;
63807;SDS011;49961;43.970;22.868;2022-12-20T04:57:38;30.73;;;20.70;;
63807;SDS011;49961;43.970;22.868;2022-12-20T04:58:38;34.33;;;21.90;;
63807;SDS011;49961;43.970;22.868;2022-12-20T04:59:39;33.93;;;21.50;;
63807;SDS011;49961;43.970;22.868;2022-12-20T05:00:39;30.33;;;20.83;;
63807;SDS011;49961;43.970;22.868;2022-12-20T05:01:39;30.53;;;20.27;;
63807;SDS011;49961;43.970;22.868;2022-12-20T05:02:40;32.10;;;21.03;;
63807;SDS011;49961;43.970;22.868;2022-12-20T05:03:40;31.90;;;20.67;;
63807;SDS011;49961;43.970;22.868;2022-12-20T05:04:41;29.10;;;19.80;;
63807;SDS011;49961;43.970;22.868;2022-12-20T05:05:42;34.30;;;21.43;;
63807;SDS011;49961;43.970;22.868;2022-12-20T05:06:42;32.23;;;20.83;;
63807;SDS011;49961;43.970;22.868;2022-12-20T05:07:43;34.27;;;20.10;;
63807;SDS011;49961;43.970;22.868;2022-12-20T05:08:43;33.30;;;21.23;;
63807;SDS011;49961;43.970;22.868;2022-12-20T05:09:44;31.50;;;21.27;;
63807;SDS011;49961;43.970;22.868;2022-12-20T05:10:44;31.23;;;20.40;;
63807;SDS011;49961;43.970;22.868;2022-12-20T05:11:46;32.08;;;20.40;;
63807;SDS011;49961;43.970;22.868;2022-12-20T05:12:46;33.97;;;21.30;;
63807;SDS011;49961;43.970;22.868;2022-12-20T05:13:47;30.07;;;20.40;;
63807;SDS011;49961;43.970;22.868;2022-12-20T05:14:47;31.57;;;20.07;;
63807;SDS011;49961;43.970;22.868;2022-12-20T05:15:51;31.00;;;20.87;;
63807;SDS011;49961;43.970;22.868;2022-12-20T05:16:53;29.92;;;20.25;;
63807;SDS011;49961;43.970;22.868;2022-12-20T05:17:53;30.23;;;20.90;;
63807;SDS011;49961;43.970;22.868;2022-12-20T05:18:58;32.28;;;19.42;;
63807;SDS011;49961;43.970;22.868;2022-12-20T05:19:58;32.37;;;20.17;;
63807;SDS011;49961;43.970;22.868;2022-12-20T05:20:59;31.00;;;20.30;;
63807;SDS011;49961;43.970;22.868;2022-12-20T05:22:19;30.83;;;20.00;;
63807;SDS011;49961;43.970;22.868;2022-12-20T05:23:38;32.45;;;21.73;;
63807;SDS011;49961;43.970;22.868;2022-12-20T05:24:57;29.42;;;18.98;;
63807;SDS011;49961;43.970;22.868;2022-12-20T05:26:16;33.05;;;19.58;;
63807;SDS011;49961;43.970;22.868;2022-12-20T05:27:17;30.43;;;19.93;;
63807;SDS011;49961;43.970;22.868;2022-12-20T05:28:17;30.73;;;20.57;;
63807;SDS011;49961;43.970;22.868;2022-12-20T05:29:17;35.03;;;22.87;;
63807;SDS011;49961;43.970;22.868;2022-12-20T05:30:18;33.30;;;20.47;;
63807;SDS011;49961;43.970;22.868;2022-12-20T05:31:20;30.10;;;19.48;;
63807;SDS011;49961;43.970;22.868;2022-12-20T05:32:21;29.47;;;19.60;;
63807;SDS011;49961;43.970;22.868;2022-12-20T05:33:21;35.50;;;20.73;;
63807;SDS011;49961;43.970;22.868;2022-12-20T05:34:21;34.23;;;22.53;;
63807;SDS011;49961;43.970;22.868;2022-12-20T05:35:22;35.77;;;23.93;;
63807;SDS011;49961;43.970;22.868;2022-12-20T05:36:22;33.83;;;22.13;;
63807;SDS011;49961;43.970;22.868;2022-12-20T05:37:23;34.37;;;22.33;;
63807;SDS011;49961;43.970;22.868;2022-12-20T05:38:23;31.17;;;19.97;;
63807;SDS011;49961;43.970;22.868;2022-12-20T05:39:24;29.10;;;20.10;;
63807;SDS011;49961;43.970;22.868;2022-12-20T05:40:24;32.23;;;20.40;;
63807;SDS011;49961;43.970;22.868;2022-12-20T05:41:25;32.73;;;19.93;;
63807;SDS011;49961;43.970;22.868;2022-12-20T05:42:26;33.23;;;20.70;;
63807;SDS011;49961;43.970;22.868;2022-12-20T05:43:26;30.67;;;19.77;;
63807;SDS011;49961;43.970;22.868;2022-12-20T05:44:26;30.43;;;19.63;;
63807;SDS011;49961;43.970;22.868;2022-12-20T05:45:27;37.30;;;23.00;;
63807;SDS011;49961;43.970;22.868;2022-12-20T05:46:27;37.30;;;24.83;;
63807;SDS011;49961;43.970;22.868;2022-12-20T05:47:28;34.73;;;22.33;;
63807;SDS011;49961;43.970;22.868;2022-12-20T05:48:32;32.85;;;21.83;;
63807;SDS011;49961;43.970;22.868;2022-12-20T05:49:33;27.97;;;19.43;;
63807;SDS011;49961;43.970;22.868;2022-12-20T05:50:33;30.07;;;19.30;;
63807;SDS011;49961;43.970;22.868;2022-12-20T05:51:34;29.73;;;19.17;;
63807;SDS011;49961;43.970;22.868;2022-12-20T05:52:34;29.63;;;19.67;;
63807;SDS011;49961;43.970;22.868;2022-12-20T05:53:35;29.60;;;19.37;;
63807;SDS011;49961;43.970;22.868;2022-12-20T05:54:35;32.00;;;19.97;;
63807;SDS011;49961;43.970;22.868;2022-12-20T05:55:36;29.77;;;19.50;;
63807;SDS011;49961;43.970;22.868;2022-12-20T05:56:39;32.47;;;20.73;;
63807;SDS011;49961;43.970;22.868;2022-12-20T05:57:39;31.57;;;20.40;;
63807;SDS011;49961;43.970;22.868;2022-12-20T05:58:40;37.30;;;21.73;;
63807;SDS011;49961;43.970;22.868;2022-12-20T05:59:41;33.33;;;22.03;;
63807;SDS011;49961;43.970;22.868;2022-12-20T06:00:41;31.90;;;20.27;;
63807;SDS011;49961;43.970;22.868;2022-12-20T06:01:43;29.30;;;20.02;;
63807;SDS011;49961;43.970;22.868;2022-12-20T06:02:43;29.73;;;19.93;;
63807;SDS011;49961;43.970;22.868;2022-12-20T06:03:44;30.80;;;20.87;;
63807;SDS011;49961;43.970;22.868;2022-12-20T06:04:45;29.03;;;20.20;;
63807;SDS011;49961;43.970;22.868;2022-12-20T06:05:45;27.43;;;18.97;;
63807;SDS011;49961;43.970;22.868;2022-12-20T06:06:45;29.00;;;19.87;;
63807;SDS011;49961;43.970;22.868;2022-12-20T06:07:46;30.07;;;19.57;;
63807;SDS011;49961;43.970;22.868;2022-12-20T06:08:46;29.93;;;19.10;;
63807;SDS011;49961;43.970;22.868;2022-12-20T06:09:47;30.03;;;19.20;;
63807;SDS011;49961;43.970;22.868;2022-12-20T06:10:48;30.83;;;19.43;;
63807;SDS011;49961;43.970;22.868;2022-12-20T06:11:48;27.97;;;19.00;;
63807;SDS011;49961;43.970;22.868;2022-12-20T06:12:49;31.47;;;19.77;;
63807;SDS011;49961;43.970;22.868;2022-12-20T06:13:50;28.13;;;19.43;;
63807;SDS011;49961;43.970;22.868;2022-12-20T06:14:50;28.97;;;18.33;;